Time;durP1;ratioP1;P1;durP2;ratioP2;P2;SDS_P1;SDS_P2;PMS_P1;PMS_P2;Temp;Humidity;BMP_temperature;BMP_pressure;BME280_temperature;BME280_humidity;BME280_pressure;Samples;Min_cycle;Max_cycle;Signal;HPM_P1;HPM_P2
2023/08/26 00:01:02;;;;;;;9.30;8.10;;;;;;;24.31;100.00;100557.69;20988347;28;20044;-71
2023/08/26 00:11:25;;;;;;;12.23;9.20;;;;;;;24.23;100.00;100558.91;20939394;28;20044;-71
2023/08/26 00:21:50;;;;;;;13.05;8.30;;;;;;;23.68;100.00;100562.19;20962397;28;20040;-71
2023/08/26 00:32:13;;;;;;;11.75;8.90;;;;;;;23.90;100.00;100546.84;20993647;28;20084;-72
2023/08/26 00:42:38;;;;;;;12.32;9.43;;;;;;;23.86;100.00;100544.34;20945517;28;20056;-71
2023/08/26 00:53:01;;;;;;;8.95;6.88;;;;;;;23.88;100.00;100529.00;20930391;28;20147;-71
2023/08/26 01:03:25;;;;;;;12.23;7.68;;;;;;;23.66;100.00;100521.81;20959983;28;20056;-71
2023/08/26 01:13:58;;;;;;;11.32;7.15;;;;;;;23.56;100.00;100512.38;20958771;28;20059;-71
2023/08/26 01:24:23;;;;;;;10.10;6.97;;;;;;;23.60;100.00;100514.00;20953320;28;20059;-71
2023/08/26 01:34:49;;;;;;;14.75;7.30;;;;;;;23.64;100.00;100509.34;20951048;28;20563;-70
2023/08/26 01:45:13;;;;;;;8.63;6.50;;;;;;;23.51;100.00;100513.47;20930100;28;20055;-71
2023/08/26 01:55:36;;;;;;;9.95;7.43;;;;;;;23.41;100.00;100510.28;20947876;28;20051;-71
2023/08/26 02:06:02;;;;;;;10.65;8.00;;;;;;;23.17;100.00;100524.75;20940949;28;20049;-71
2023/08/26 02:16:25;;;;;;;13.25;8.48;;;;;;;23.25;100.00;100544.16;20942198;28;20052;-71
2023/08/26 02:26:49;;;;;;;10.95;7.53;;;;;;;23.21;100.00;100537.16;20935542;28;20059;-71
2023/08/26 02:37:12;;;;;;;11.98;8.10;;;;;;;23.24;100.00;100537.00;20934455;28;20071;-71
2023/08/26 02:47:37;;;;;;;13.23;8.43;;;;;;;23.14;100.00;100543.72;20944965;28;20041;-71
2023/08/26 02:57:59;;;;;;;14.73;9.02;;;;;;;23.08;100.00;100539.44;20972734;28;20044;-71
2023/08/26 03:08:23;;;;;;;11.32;8.00;;;;;;;23.10;100.00;100534.00;20953153;28;20044;-71
2023/08/26 03:18:46;;;;;;;10.98;8.55;;;;;;;22.99;100.00;100539.78;21002716;28;20090;-72
2023/08/26 03:29:10;;;;;;;11.10;7.70;;;;;;;22.88;100.00;100540.22;20951241;28;20056;-71
2023/08/26 03:39:33;;;;;;;10.70;7.78;;;;;;;22.85;100.00;100539.44;20970766;28;20123;-71
2023/08/26 03:49:58;;;;;;;11.95;7.78;;;;;;;22.75;100.00;100547.00;20947151;28;20126;-71
2023/08/26 04:00:21;;;;;;;12.25;7.85;;;;;;;22.84;100.00;100543.09;20949431;28;20044;-71
2023/08/26 04:10:45;;;;;;;12.32;7.18;;;;;;;23.03;100.00;100560.31;20940703;28;20409;-71
2023/08/26 04:21:08;;;;;;;10.52;6.40;;;;;;;23.23;100.00;100573.00;20932553;28;20044;-71
2023/08/26 04:31:32;;;;;;;10.32;5.85;;;;;;;23.71;100.00;100571.00;20926373;28;20567;-71
2023/08/26 04:41:55;;;;;;;11.75;5.90;;;;;;;24.19;100.00;100572.63;20982404;28;20044;-71
2023/08/26 04:52:19;;;;;;;9.05;5.05;;;;;;;24.80;100.00;100575.28;20939901;28;20093;-71
2023/08/26 05:02:42;;;;;;;10.57;5.13;;;;;;;25.32;100.00;100565.63;20945977;28;20052;-71
2023/08/26 05:13:07;;;;;;;8.45;5.00;;;;;;;25.98;100.00;100568.66;20938995;28;20048;-71
2023/08/26 05:23:29;;;;;;;11.88;4.78;;;;;;;26.92;100.00;100559.09;20952925;28;20080;-71
2023/08/26 05:33:53;;;;;;;9.80;3.72;;;;;;;27.70;100.00;100561.00;20951706;28;20052;-71
2023/08/26 05:44:16;;;;;;;7.05;3.42;;;;;;;28.63;100.00;100563.50;20945187;28;20101;-71
2023/08/26 05:54:42;;;;;;;8.77;3.70;;;;;;;29.48;100.00;100563.50;20936163;28;20040;-71
2023/08/26 06:05:06;;;;;;;8.15;3.67;;;;;;;29.97;81.90;100552.09;20934528;28;20076;-71
2023/08/26 06:15:30;;;;;;;7.25;3.42;;;;;;;30.66;78.16;100554.50;20941912;28;20052;-71
2023/08/26 06:25:53;;;;;;;4.55;3.22;;;;;;;31.03;75.63;100565.50;20937853;28;20052;-72
2023/08/26 06:36:20;;;;;;;8.98;3.47;;;;;;;31.32;69.93;100571.56;20941888;28;20067;-72
2023/08/26 06:46:42;;;;;;;5.40;3.28;;;;;;;31.34;67.58;100577.78;20962221;28;20142;-72
2023/08/26 06:57:07;;;;;;;7.30;3.72;;;;;;;32.01;64.06;100593.63;20969790;28;20143;-72
2023/08/26 07:07:29;;;;;;;7.72;3.13;;;;;;;32.63;60.76;100595.22;20943285;28;20052;-72
2023/08/26 07:17:54;;;;;;;6.15;2.63;;;;;;;33.12;53.98;100614.09;20940146;28;20396;-73
2023/08/26 07:28:17;;;;;;;6.18;2.83;;;;;;;33.39;51.80;100605.53;20964844;28;20676;-72
2023/08/26 07:38:41;;;;;;;5.55;3.33;;;;;;;33.77;50.38;100605.13;20955447;28;20500;-73
2023/08/26 07:49:04;;;;;;;8.73;4.00;;;;;;;33.79;49.01;100612.22;21002944;28;20378;-72
2023/08/26 07:59:28;;;;;;;6.60;3.80;;;;;;;34.06;47.52;100609.03;20972305;28;20151;-73
2023/08/26 08:09:53;;;;;;;8.30;3.97;;;;;;;34.37;46.28;100610.91;20998175;28;20394;-72
2023/08/26 08:20:19;;;;;;;7.15;4.53;;;;;;;34.64;45.89;100617.75;20971549;28;20044;-74
2023/08/26 08:30:42;;;;;;;6.47;4.22;;;;;;;34.98;44.86;100624.78;20808250;28;20055;-71
2023/08/26 08:41:06;;;;;;;7.50;4.13;;;;;;;35.15;43.81;100623.28;20799639;28;20053;-71
2023/08/26 08:51:29;;;;;;;12.27;5.22;;;;;;;35.14;43.67;100627.03;20816943;28;20057;-70
2023/08/26 09:01:55;;;;;;;13.00;4.70;;;;;;;35.38;42.01;100634.97;20788905;28;20053;-70
2023/08/26 09:12:18;;;;;;;9.05;4.72;;;;;;;35.91;40.39;100633.69;20812354;28;20053;-70
2023/08/26 09:22:42;;;;;;;8.18;3.83;;;;;;;35.88;38.06;100617.50;20876761;28;20071;-69
2023/08/26 09:33:13;;;;;;;6.28;3.90;;;;;;;36.26;37.20;100622.19;20959877;28;20059;-71
2023/08/26 09:43:40;;;;;;;10.43;4.20;;;;;;;36.74;37.07;100624.09;20962018;28;20056;-70
2023/08/26 09:54:04;;;;;;;8.77;4.03;;;;;;;37.04;36.48;100621.09;20956384;28;20053;-73
2023/08/26 10:04:34;;;;;;;9.30;4.63;;;;;;;37.09;36.74;100626.13;20942093;28;20956;-72
2023/08/26 10:15:00;;;;;;;6.78;4.32;;;;;;;37.20;36.71;100627.91;20959665;28;20060;-73
2023/08/26 10:25:25;;;;;;;8.13;5.40;;;;;;;37.33;36.53;100628.41;20941601;28;20060;-72
2023/08/26 10:35:59;;;;;;;9.45;5.03;;;;;;;37.41;36.43;100631.28;20952558;28;20044;-72
2023/08/26 10:46:37;;;;;;;8.02;4.72;;;;;;;36.89;37.52;100622.56;20913417;28;20055;-72
2023/08/26 10:57:04;;;;;;;9.35;5.63;;;;;;;36.68;38.55;100616.41;20947817;28;20052;-72
2023/08/26 11:07:29;;;;;;;10.02;5.55;;;;;;;36.02;38.98;100613.47;20933130;28;20642;-72
2023/08/26 11:17:52;;;;;;;10.17;5.57;;;;;;;36.03;39.15;100603.34;20949170;28;20049;-72
2023/08/26 11:28:16;;;;;;;8.75;5.55;;;;;;;36.22;39.63;100593.25;20960689;28;20052;-72
2023/08/26 11:38:39;;;;;;;7.32;5.20;;;;;;;36.46;39.52;100578.16;20955174;28;20086;-72
2023/08/26 11:49:03;;;;;;;9.30;5.50;;;;;;;36.17;39.32;100581.81;20960107;28;20053;-72
2023/08/26 11:59:26;;;;;;;8.65;5.30;;;;;;;36.44;38.59;100552.69;20940983;28;20405;-72
2023/08/26 12:09:50;;;;;;;8.48;5.30;;;;;;;36.65;38.03;100556.16;20960358;28;20048;-72
2023/08/26 12:20:24;;;;;;;9.30;4.72;;;;;;;36.67;38.38;100554.13;20958769;28;20045;-72
2023/08/26 12:30:49;;;;;;;9.75;5.05;;;;;;;36.32;37.42;100561.09;20963981;28;20052;-72
2023/08/26 12:41:11;;;;;;;10.67;4.90;;;;;;;35.88;36.73;100556.16;20944092;28;20052;-72
2023/08/26 12:51:35;;;;;;;9.63;5.43;;;;;;;35.76;37.63;100549.94;20962133;28;20049;-71
2023/08/26 13:01:58;;;;;;;8.30;6.15;;;;;;;35.42;38.75;100565.03;20950999;28;20111;-71
2023/08/26 13:12:23;;;;;;;9.35;5.47;;;;;;;35.24;40.45;100562.09;20945571;28;20040;-72
2023/08/26 13:22:46;;;;;;;9.47;5.33;;;;;;;35.01;42.30;100553.13;20953217;28;20676;-71
2023/08/26 13:33:09;;;;;;;10.82;5.85;;;;;;;34.77;44.36;100569.06;20956270;28;20048;-71
2023/08/26 13:43:32;;;;;;;9.45;5.53;;;;;;;34.52;46.21;100564.84;20956418;28;20044;-72
2023/08/26 13:53:58;;;;;;;10.18;6.25;;;;;;;34.51;49.49;100565.84;20946575;28;20047;-72
2023/08/26 14:04:21;;;;;;;8.85;5.85;;;;;;;34.48;53.54;100565.22;20948115;28;20371;-71
2023/08/26 14:14:45;;;;;;;10.43;6.05;;;;;;;34.36;58.54;100579.00;20934657;28;20401;-71
2023/08/26 14:25:09;;;;;;;11.23;6.28;;;;;;;34.44;59.10;100572.88;20938787;28;20040;-71
2023/08/26 14:35:33;;;;;;;10.93;6.40;;;;;;;34.08;57.16;100575.97;20954584;28;20048;-72
2023/08/26 14:45:56;;;;;;;12.13;6.45;;;;;;;33.74;56.19;100578.00;20951890;28;20140;-72
2023/08/26 14:56:20;;;;;;;8.75;5.45;;;;;;;33.31;54.35;100573.31;20947749;28;20117;-71
2023/08/26 15:06:42;;;;;;;10.57;5.38;;;;;;;32.95;52.59;100581.75;20934988;28;20130;-72
2023/08/26 15:17:06;;;;;;;10.88;5.28;;;;;;;32.75;52.09;100573.28;20940954;28;20048;-71
2023/08/26 15:27:29;;;;;;;9.00;4.72;;;;;;;32.45;52.82;100576.53;20955425;28;20053;-72
2023/08/26 15:37:53;;;;;;;11.05;5.40;;;;;;;32.27;53.70;100568.91;20951418;28;20151;-72
2023/08/26 15:48:16;;;;;;;13.52;4.85;;;;;;;31.95;54.26;100564.06;20923512;28;20048;-72
2023/08/26 15:58:40;;;;;;;9.65;4.15;;;;;;;31.74;54.51;100552.03;20956065;28;20048;-73
2023/08/26 16:09:03;;;;;;;12.57;5.15;;;;;;;31.55;54.11;100552.50;20943620;28;20143;-72
2023/08/26 16:19:32;;;;;;;7.53;3.92;;;;;;;31.37;53.01;100570.28;20957464;28;20061;-72
2023/08/26 16:29:55;;;;;;;9.98;4.40;;;;;;;31.04;53.18;100561.78;20939955;28;20133;-72
2023/08/26 16:40:19;;;;;;;10.88;5.00;;;;;;;30.79;55.13;100574.44;20948248;28;20098;-72
2023/08/26 16:50:43;;;;;;;11.75;4.82;;;;;;;30.56;58.14;100567.03;20951023;28;20049;-72
2023/08/26 17:01:07;;;;;;;10.57;4.82;;;;;;;30.36;61.46;100559.34;20953141;28;20385;-71
2023/08/26 17:11:30;;;;;;;13.38;5.13;;;;;;;30.13;65.55;100581.88;20985752;28;20098;-72
2023/08/26 17:21:56;;;;;;;9.95;5.15;;;;;;;29.96;67.33;100583.91;20950232;28;20080;-72
2023/08/26 17:32:18;;;;;;;11.68;5.13;;;;;;;29.90;66.30;100597.88;20953454;28;20072;-73
2023/08/26 17:42:43;;;;;;;10.93;5.25;;;;;;;29.68;69.13;100597.56;20971606;28;20037;-74
2023/08/26 17:53:05;;;;;;;11.90;5.60;;;;;;;29.47;72.63;100601.72;20961474;28;20057;-73
2023/08/26 18:03:29;;;;;;;10.93;5.93;;;;;;;29.36;75.37;100590.66;20957494;28;20098;-72
2023/08/26 18:13:52;;;;;;;12.80;6.00;;;;;;;29.31;76.93;100599.97;20966876;28;20052;-72
2023/08/26 18:24:16;;;;;;;14.45;6.10;;;;;;;29.23;79.26;100602.28;20961556;28;20059;-72
2023/08/26 18:34:38;;;;;;;12.98;6.20;;;;;;;29.05;81.76;100608.91;20950496;28;20100;-73
2023/08/26 18:45:02;;;;;;;10.82;6.35;;;;;;;28.91;83.96;100600.75;20960009;28;20048;-72
2023/08/26 18:55:24;;;;;;;10.80;5.85;;;;;;;28.73;87.86;100604.59;20962748;28;20913;-72
2023/08/26 19:05:50;;;;;;;12.07;6.28;;;;;;;28.58;91.92;100610.97;20965279;28;20558;-74
2023/08/26 19:16:13;;;;;;;13.80;6.70;;;;;;;28.40;92.52;100612.97;20960644;28;20109;-73
2023/08/26 19:26:37;;;;;;;10.90;5.95;;;;;;;27.95;98.53;100608.41;20941948;28;20055;-72
2023/08/26 19:36:59;;;;;;;11.57;5.93;;;;;;;27.97;97.00;100609.19;20975142;28;20048;-73
2023/08/26 19:47:23;;;;;;;9.05;6.55;;;;;;;27.94;95.23;100606.66;20960423;28;20048;-72
2023/08/26 19:57:46;;;;;;;14.75;8.10;;;;;;;27.82;96.73;100602.84;20978243;28;20090;-71
2023/08/26 20:08:10;;;;;;;12.07;6.35;;;;;;;27.77;97.57;100581.38;20959951;28;20060;-72
2023/08/26 20:18:32;;;;;;;14.02;7.20;;;;;;;27.59;98.96;100578.88;20965327;28;20587;-72
2023/08/26 20:28:56;;;;;;;12.38;7.75;;;;;;;27.31;100.00;100574.97;20959968;28;20080;-72
2023/08/26 20:39:19;;;;;;;15.13;7.07;;;;;;;27.20;100.00;100577.44;20964929;28;20047;-71
2023/08/26 20:49:43;;;;;;;10.52;7.32;;;;;;;27.17;100.00;100571.31;20961671;28;20260;-71
2023/08/26 21:00:08;;;;;;;13.82;7.30;;;;;;;26.90;100.00;100571.00;20951989;28;20052;-71
2023/08/26 21:10:33;;;;;;;13.32;6.55;;;;;;;26.85;98.88;100584.75;20964824;28;20500;-71
2023/08/26 21:20:56;;;;;;;10.98;6.78;;;;;;;26.62;99.91;100568.00;20950218;28;20050;-72
2023/08/26 21:31:20;;;;;;;10.70;6.70;;;;;;;26.53;99.29;100566.66;20964776;28;20401;-71
2023/08/26 21:41:43;;;;;;;9.95;6.78;;;;;;;26.42;97.70;100544.72;20964474;28;20397;-71
2023/08/26 21:52:07;;;;;;;12.35;7.55;;;;;;;26.30;98.03;100539.94;20962757;28;20055;-72
2023/08/26 22:02:30;;;;;;;10.15;7.05;;;;;;;26.12;98.85;100529.09;20963314;28;20049;-72
2023/08/26 22:12:56;;;;;;;8.68;6.65;;;;;;;26.07;98.64;100519.44;20961348;28;20045;-72
2023/08/26 22:23:19;;;;;;;12.85;7.55;;;;;;;25.92;99.27;100514.88;20956812;28;20055;-72
2023/08/26 22:33:44;;;;;;;12.30;6.60;;;;;;;25.89;97.69;100501.47;20958281;28;20059;-71
2023/08/26 22:44:07;;;;;;;13.98;7.15;;;;;;;25.76;97.56;100502.13;20961524;28;20051;-71
2023/08/26 22:54:32;;;;;;;13.13;7.35;;;;;;;25.70;97.63;100493.44;20959960;28;20129;-72
2023/08/26 23:04:54;;;;;;;10.23;7.20;;;;;;;25.63;96.86;100490.19;20963598;28;20055;-72
2023/08/26 23:15:19;;;;;;;10.98;6.78;;;;;;;25.46;99.14;100490.13;20954023;28;20048;-72
2023/08/26 23:25:42;;;;;;;9.25;6.47;;;;;;;25.49;97.77;100480.97;20959726;28;20056;-72
2023/08/26 23:36:07;;;;;;;11.48;6.80;;;;;;;25.22;99.78;100465.19;20997748;28;20090;-72
2023/08/26 23:46:30;;;;;;;12.50;7.00;;;;;;;25.23;98.82;100466.94;20972547;28;20053;-72
2023/08/26 23:56:57;;;;;;;9.60;6.53;;;;;;;25.26;96.18;100458.69;20986872;28;20098;-71
